Terminal Aerodrome Forecast
Issued by NWS

Home | Current Version | Previous Version | Text Only | Print | Product List | Glossary On
Versions: 1 2 3 4 5 6 7 8 9 10 11 12 13
000
FTUS42 KMLB 202327
TAFTIX
TAF
KTIX 202327Z 2100/2124 12012KT P6SM VCSH SCT025 SCT035
     FM210200 11005KT P6SM FEW040
     FM211500 13008KT P6SM SCT040
      AMD NOT SKED 2102/2112=

USA.gov is the U.S. government's official web portal to all federal, state and local government web resources and services.